Time;durP1;ratioP1;P1;durP2;ratioP2;P2;SDS_P1;SDS_P2;PMS_P1;PMS_P2;Temp;Humidity;BMP_temperature;BMP_pressure;BME280_temperature;BME280_humidity;BME280_pressure;Samples;Min_cycle;Max_cycle;Signal;HPM_P1;HPM_P2
2022/01/09 00:00:30;;;;;;;0.00;0.00;;;6.00;99.90;;;;;;6210775;23;20008;-72
2022/01/09 00:02:56;;;;;;;0.00;0.00;;;6.00;99.90;;;;;;6212019;23;20015;-73
2022/01/09 00:05:22;;;;;;;0.00;0.00;;;6.00;99.90;;;;;;6211299;23;20503;-73
2022/01/09 00:07:48;;;;;;;0.00;0.00;;;6.00;99.90;;;;;;6208361;23;20027;-73
2022/01/09 00:10:14;;;;;;;0.00;0.00;;;6.00;99.90;;;;;;6211964;23;20008;-72
2022/01/09 00:12:40;;;;;;;0.00;0.00;;;6.10;99.90;;;;;;6210944;23;20031;-74
2022/01/09 00:15:07;;;;;;;0.00;0.00;;;6.00;99.90;;;;;;6213413;23;20071;-73
2022/01/09 00:17:34;;;;;;;0.00;0.00;;;6.00;99.90;;;;;;6212097;23;20027;-73
2022/01/09 00:19:59;;;;;;;;;;;6.00;99.90;;;;;;6212503;23;20000;-73
2022/01/09 00:23:07;;;;;;;0.00;0.00;;;6.00;99.90;;;;;;6211863;23;19900;-73
2022/01/09 00:25:16;;;;;;;0.00;0.00;;;6.00;99.90;;;;;;6204742;23;20011;-72
2022/01/09 00:27:42;;;;;;;0.00;0.00;;;6.10;99.90;;;;;;6212326;23;20004;-73
2022/01/09 00:30:11;;;;;;;0.00;0.00;;;6.00;99.90;;;;;;6213199;23;20075;-72
2022/01/09 00:32:36;;;;;;;0.00;0.00;;;6.10;99.90;;;;;;6211714;23;20009;-73
2022/01/09 00:35:04;;;;;;;0.00;0.00;;;6.00;99.90;;;;;;6214234;23;20389;-72
2022/01/09 00:37:30;;;;;;;0.00;0.00;;;6.00;99.90;;;;;;6218761;23;20004;-73
2022/01/09 00:39:56;;;;;;;0.00;0.00;;;6.00;99.90;;;;;;6216838;23;20004;-73
2022/01/09 00:42:21;;;;;;;0.00;0.00;;;6.10;99.90;;;;;;6217398;23;20068;-73
2022/01/09 00:44:47;;;;;;;0.00;0.00;;;6.10;99.90;;;;;;6214311;23;20001;-72
2022/01/09 00:47:13;;;;;;;0.00;0.00;;;6.10;99.90;;;;;;6212468;23;20007;-72
2022/01/09 00:49:38;;;;;;;0.00;0.00;;;6.10;99.90;;;;;;6213660;23;20003;-73
2022/01/09 00:52:04;;;;;;;0.00;0.00;;;6.00;99.90;;;;;;6212614;23;19997;-73
2022/01/09 00:54:30;;;;;;;0.00;0.00;;;6.00;99.90;;;;;;6211184;23;20014;-72
2022/01/09 00:56:56;;;;;;;0.00;0.00;;;6.00;99.90;;;;;;6213404;23;20074;-73
2022/01/09 00:59:21;;;;;;;0.00;0.00;;;6.10;99.90;;;;;;6211743;23;20008;-73
2022/01/09 01:01:47;;;;;;;0.00;0.00;;;6.00;99.90;;;;;;6212139;23;20000;-73
2022/01/09 01:04:13;;;;;;;0.00;0.00;;;6.00;99.90;;;;;;6211778;23;20015;-73
2022/01/09 01:06:39;;;;;;;0.00;0.00;;;6.00;99.90;;;;;;6213269;23;20352;-73
2022/01/09 01:09:05;;;;;;;0.00;0.00;;;6.00;99.90;;;;;;6213875;23;20039;-72
2022/01/09 01:11:31;;;;;;;0.00;0.00;;;6.00;99.90;;;;;;6211447;23;20063;-73
2022/01/09 01:13:57;;;;;;;0.00;0.00;;;6.00;99.90;;;;;;6212863;23;20044;-72
2022/01/09 01:16:23;;;;;;;0.00;0.00;;;6.00;99.90;;;;;;6213461;23;20283;-72
2022/01/09 01:18:49;;;;;;;0.00;0.00;;;6.10;99.90;;;;;;6211801;23;20000;-72
2022/01/09 01:21:14;;;;;;;0.00;0.00;;;6.10;99.90;;;;;;6212515;23;20365;-72
2022/01/09 01:23:41;;;;;;;0.00;0.00;;;6.00;99.90;;;;;;6212793;23;20013;-73
2022/01/09 01:26:07;;;;;;;0.00;0.00;;;6.00;99.90;;;;;;6212126;23;19996;-71
2022/01/09 01:28:33;;;;;;;;;;;6.00;99.90;;;;;;6213195;23;19997;-71
2022/01/09 01:30:59;;;;;;;0.00;0.00;;;6.00;99.90;;;;;;6210873;23;19911;-72
2022/01/09 01:33:25;;;;;;;0.00;0.00;;;6.00;99.90;;;;;;6211758;23;19997;-72
2022/01/09 01:35:51;;;;;;;0.00;0.00;;;5.90;99.90;;;;;;6211927;23;20502;-72
2022/01/09 01:38:19;;;;;;;0.00;0.00;;;6.00;99.90;;;;;;6212713;23;20062;-73
2022/01/09 01:40:45;;;;;;;0.00;0.00;;;5.90;99.90;;;;;;6211607;23;20380;-73
2022/01/09 01:43:11;;;;;;;0.00;0.00;;;5.90;99.90;;;;;;6212700;23;20005;-72
2022/01/09 01:45:37;;;;;;;0.00;0.00;;;5.90;99.90;;;;;;6212558;23;19997;-71
2022/01/09 01:48:06;;;;;;;0.00;0.00;;;5.90;99.90;;;;;;6211776;23;20000;-73
2022/01/09 01:50:38;;;;;;;0.00;0.00;;;5.90;99.90;;;;;;6209635;23;20009;-73
2022/01/09 01:53:16;;;;;;;0.00;0.00;;;5.90;99.90;;;;;;6210893;23;20005;-72
2022/01/09 01:55:42;;;;;;;0.00;0.00;;;5.80;99.90;;;;;;6212541;23;20019;-73
2022/01/09 01:58:13;;;;;;;0.00;0.00;;;5.80;99.90;;;;;;6213378;23;20005;-73
2022/01/09 02:00:41;;;;;;;0.00;0.00;;;5.80;99.90;;;;;;6210876;23;20019;-73
2022/01/09 02:03:09;;;;;;;0.00;0.00;;;5.70;99.90;;;;;;6212839;23;20054;-72
2022/01/09 02:05:35;;;;;;;0.00;0.00;;;5.80;99.90;;;;;;6213191;23;20058;-71
2022/01/09 02:08:02;;;;;;;0.00;0.00;;;5.80;99.90;;;;;;6212039;23;19996;-72
2022/01/09 02:10:28;;;;;;;0.00;0.00;;;5.80;99.90;;;;;;6212052;23;20400;-72
2022/01/09 02:12:56;;;;;;;0.00;0.00;;;5.80;99.90;;;;;;6212954;23;19996;-72
2022/01/09 02:15:47;;;;;;;0.00;0.00;;;5.70;99.90;;;;;;6214707;23;20110;-73
2022/01/09 02:18:20;;;;;;;0.00;0.00;;;5.80;99.90;;;;;;6214806;23;20433;-73
2022/01/09 02:20:47;;;;;;;0.00;0.00;;;5.80;99.90;;;;;;6212153;23;20489;-73
2022/01/09 02:23:15;;;;;;;0.00;0.00;;;5.80;99.90;;;;;;6214270;23;20078;-72
2022/01/09 02:25:42;;;;;;;0.00;0.00;;;5.80;99.90;;;;;;6213632;23;20001;-72
2022/01/09 02:28:10;;;;;;;0.00;0.00;;;5.80;99.90;;;;;;6211638;23;20012;-72
2022/01/09 02:30:36;;;;;;;0.00;0.00;;;5.80;99.90;;;;;;6212259;23;20008;-72
2022/01/09 02:33:05;;;;;;;0.00;0.00;;;5.80;99.90;;;;;;6212117;23;20468;-72
2022/01/09 02:35:31;;;;;;;0.00;0.00;;;5.70;99.90;;;;;;6211465;23;20062;-71
2022/01/09 02:37:57;;;;;;;0.00;0.00;;;5.80;99.90;;;;;;6210559;23;20004;-72
2022/01/09 02:40:23;;;;;;;0.00;0.00;;;5.70;99.90;;;;;;6210784;23;20032;-73
2022/01/09 02:42:53;;;;;;;0.00;0.00;;;5.80;99.90;;;;;;6212541;23;20447;-73
2022/01/09 02:45:21;;;;;;;0.00;0.00;;;5.70;99.90;;;;;;6211678;23;20004;-72
2022/01/09 02:47:48;;;;;;;0.00;0.00;;;5.70;99.90;;;;;;6210575;23;20368;-72
2022/01/09 02:50:37;;;;;;;0.00;0.00;;;5.70;99.90;;;;;;6210966;23;20080;-72
2022/01/09 02:53:14;;;;;;;0.00;0.00;;;5.70;99.90;;;;;;6210612;23;20005;-72
2022/01/09 02:55:41;;;;;;;0.00;0.00;;;5.70;99.90;;;;;;6211897;23;20076;-72
2022/01/09 02:58:08;;;;;;;0.00;0.00;;;5.70;99.90;;;;;;6211737;23;20001;-72
2022/01/09 03:00:36;;;;;;;0.00;0.00;;;5.70;99.90;;;;;;6210572;23;20353;-73
2022/01/09 03:03:02;;;;;;;0.00;0.00;;;5.70;99.90;;;;;;6210767;23;19997;-72
2022/01/09 03:05:29;;;;;;;0.00;0.00;;;5.60;99.90;;;;;;6212415;23;20067;-72
2022/01/09 03:07:55;;;;;;;0.00;0.00;;;5.60;99.90;;;;;;6210118;23;20114;-72
2022/01/09 03:10:22;;;;;;;0.00;0.00;;;5.60;99.90;;;;;;6211922;23;20705;-72
2022/01/09 03:12:49;;;;;;;0.00;0.00;;;5.60;99.90;;;;;;6208425;23;20393;-72
2022/01/09 03:15:16;;;;;;;0.00;0.00;;;5.60;99.90;;;;;;6211563;23;20005;-72
2022/01/09 03:17:43;;;;;;;0.00;0.00;;;5.70;99.90;;;;;;6210342;23;20325;-71
2022/01/09 03:20:19;;;;;;;0.00;0.00;;;5.60;99.90;;;;;;6210586;23;20000;-72
2022/01/09 03:22:45;;;;;;;0.00;0.00;;;5.70;99.90;;;;;;6210182;23;20088;-73
2022/01/09 03:25:11;;;;;;;;;;;5.60;99.90;;;;;;6212450;23;20459;-72
2022/01/09 03:27:39;;;;;;;0.00;0.00;;;5.60;99.90;;;;;;6210710;23;19911;-72
2022/01/09 03:30:07;;;;;;;0.00;0.00;;;5.50;99.90;;;;;;6212698;23;20011;-72
2022/01/09 03:32:35;;;;;;;0.00;0.00;;;5.40;99.90;;;;;;6210009;23;20398;-71
2022/01/09 03:35:01;;;;;;;0.00;0.00;;;5.40;99.90;;;;;;6210839;23;20005;-72
2022/01/09 03:37:27;;;;;;;0.00;0.00;;;5.50;99.90;;;;;;6211776;23;20001;-71
2022/01/09 03:39:53;;;;;;;0.00;0.00;;;5.40;99.90;;;;;;6210702;23;20012;-71
2022/01/09 03:42:19;;;;;;;0.00;0.00;;;5.40;99.90;;;;;;6211547;23;20005;-73
2022/01/09 03:44:44;;;;;;;0.00;0.00;;;5.30;99.90;;;;;;6211473;23;20067;-71
2022/01/09 03:47:11;;;;;;;0.00;0.00;;;5.40;99.90;;;;;;6210718;23;20005;-71
2022/01/09 03:49:36;;;;;;;;;;;5.40;99.90;;;;;;6211292;23;20084;-72
2022/01/09 03:52:02;;;;;;;0.00;0.00;;;5.40;99.90;;;;;;6209808;23;19939;-73
2022/01/09 03:54:28;;;;;;;;;;;5.30;99.90;;;;;;6211732;23;20007;-72
2022/01/09 03:56:54;;;;;;;0.00;0.00;;;5.30;99.90;;;;;;6211927;23;19899;-72
2022/01/09 03:59:20;;;;;;;0.00;0.00;;;5.30;99.90;;;;;;6211294;23;20448;-72
2022/01/09 04:01:50;;;;;;;0.00;0.00;;;5.30;99.90;;;;;;6211536;23;20441;-73
2022/01/09 04:04:16;;;;;;;0.00;0.00;;;5.30;99.90;;;;;;6211749;23;20448;-72
2022/01/09 04:06:46;;;;;;;0.00;0.00;;;5.20;99.90;;;;;;6209382;23;20008;-71
2022/01/09 04:09:38;;;;;;;0.00;0.00;;;5.20;99.90;;;;;;6212599;23;19997;-71
2022/01/09 04:12:07;;;;;;;0.00;0.00;;;5.10;99.90;;;;;;6211854;23;20317;-71
2022/01/09 04:14:32;;;;;;;0.00;0.00;;;5.10;99.90;;;;;;6213175;23;20425;-72
2022/01/09 04:17:00;;;;;;;0.00;0.00;;;5.10;99.90;;;;;;6213703;23;20004;-73
2022/01/09 04:19:26;;;;;;;0.00;0.00;;;5.10;99.90;;;;;;6213878;23;20421;-71
2022/01/09 04:21:51;;;;;;;0.00;0.00;;;5.20;99.90;;;;;;6213433;23;20050;-72
2022/01/09 04:24:17;;;;;;;0.00;0.00;;;5.10;99.90;;;;;;6213375;23;20051;-73
2022/01/09 04:26:43;;;;;;;0.00;0.00;;;5.10;99.90;;;;;;6211116;23;20008;-71
2022/01/09 04:29:09;;;;;;;0.00;0.00;;;5.10;99.90;;;;;;6212956;23;20071;-72
2022/01/09 04:31:34;;;;;;;0.00;0.00;;;5.10;99.90;;;;;;6213777;23;20413;-72
2022/01/09 04:34:00;;;;;;;0.00;0.00;;;5.10;99.90;;;;;;6211631;23;20016;-71
2022/01/09 04:36:26;;;;;;;0.00;0.00;;;5.10;99.90;;;;;;6214645;23;20019;-71
2022/01/09 04:38:54;;;;;;;0.00;0.00;;;5.10;99.90;;;;;;6214417;23;20007;-72
2022/01/09 04:41:19;;;;;;;0.00;0.00;;;5.10;99.90;;;;;;6214199;23;20325;-71
2022/01/09 04:43:46;;;;;;;0.00;0.00;;;5.10;99.90;;;;;;6213532;23;20008;-72
2022/01/09 04:46:19;;;;;;;0.00;0.00;;;5.10;99.90;;;;;;6213967;23;20087;-72
2022/01/09 04:48:46;;;;;;;0.00;0.00;;;5.10;99.90;;;;;;6214336;23;20012;-72
2022/01/09 04:51:14;;;;;;;0.00;0.00;;;5.20;99.90;;;;;;6213840;23;20001;-71
2022/01/09 04:53:40;;;;;;;0.00;0.00;;;5.20;99.90;;;;;;6212760;23;20000;-72
2022/01/09 04:56:05;;;;;;;0.00;0.00;;;5.20;99.90;;;;;;6213692;23;20043;-71
2022/01/09 04:58:31;;;;;;;0.00;0.00;;;5.20;99.90;;;;;;6213967;23;20024;-72
2022/01/09 05:00:59;;;;;;;0.00;0.00;;;5.10;99.90;;;;;;6212405;23;20019;-72
2022/01/09 05:03:25;;;;;;;0.00;0.00;;;5.10;99.90;;;;;;6211135;23;20039;-73
2022/01/09 05:05:51;;;;;;;0.00;0.00;;;5.10;99.90;;;;;;6212026;23;20024;-74
2022/01/09 05:08:17;;;;;;;0.00;0.00;;;5.10;99.90;;;;;;6213357;23;20047;-71
2022/01/09 05:10:42;;;;;;;0.00;0.00;;;5.10;99.90;;;;;;6213084;23;20047;-72
2022/01/09 05:13:08;;;;;;;0.00;0.00;;;5.10;99.90;;;;;;6211683;23;20001;-73
2022/01/09 05:15:34;;;;;;;0.00;0.00;;;5.00;99.90;;;;;;6213135;23;20493;-72
2022/01/09 05:18:03;;;;;;;0.00;0.00;;;5.00;99.90;;;;;;6211152;23;20004;-72
2022/01/09 05:20:29;;;;;;;0.00;0.00;;;5.10;99.90;;;;;;6212640;23;20024;-71
2022/01/09 05:22:54;;;;;;;0.00;0.00;;;5.00;99.90;;;;;;6212189;23;19997;-71
2022/01/09 05:25:20;;;;;;;0.00;0.00;;;5.00;99.90;;;;;;6211499;23;20009;-71
2022/01/09 05:27:46;;;;;;;0.00;0.00;;;5.00;99.90;;;;;;6212264;23;20008;-72
2022/01/09 05:30:12;;;;;;;0.00;0.00;;;4.90;99.90;;;;;;6211878;23;20314;-71
2022/01/09 05:32:38;;;;;;;0.00;0.00;;;5.00;99.90;;;;;;6210630;23;20000;-72
2022/01/09 05:35:04;;;;;;;0.00;0.00;;;5.00;99.90;;;;;;6212736;23;20034;-72
2022/01/09 05:37:30;;;;;;;;;;;4.90;99.90;;;;;;6214910;23;20035;-71
2022/01/09 05:39:56;;;;;;;0.00;0.00;;;4.90;99.90;;;;;;6211628;23;19899;-72
2022/01/09 05:42:22;;;;;;;0.00;0.00;;;5.00;99.90;;;;;;6212051;23;20011;-72
2022/01/09 05:44:48;;;;;;;0.00;0.00;;;5.00;99.90;;;;;;6211849;23;20261;-72
2022/01/09 05:47:14;;;;;;;0.00;0.00;;;5.10;99.90;;;;;;6211479;23;20313;-72
2022/01/09 05:49:40;;;;;;;0.00;0.00;;;5.00;99.90;;;;;;6211802;23;20001;-71
2022/01/09 05:52:06;;;;;;;0.00;0.00;;;5.00;99.90;;;;;;6209362;23;20216;-72
2022/01/09 05:54:31;;;;;;;;;;;5.10;99.90;;;;;;6209409;23;20083;-73
2022/01/09 05:56:57;;;;;;;0.00;0.00;;;5.20;99.90;;;;;;6213091;23;19924;-72
2022/01/09 05:59:23;;;;;;;0.00;0.00;;;5.20;99.90;;;;;;6211580;23;20008;-74
2022/01/09 06:01:49;;;;;;;0.00;0.00;;;5.10;99.90;;;;;;6211949;23;20004;-72
2022/01/09 06:04:14;;;;;;;0.00;0.00;;;5.10;99.90;;;;;;6212570;23;20005;-74
2022/01/09 06:06:42;;;;;;;0.00;0.00;;;5.00;99.90;;;;;;6212391;23;20076;-74
2022/01/09 06:09:09;;;;;;;0.00;0.00;;;5.00;99.90;;;;;;6212210;23;19999;-73
2022/01/09 06:11:35;;;;;;;0.00;0.00;;;5.10;99.90;;;;;;6212985;23;20011;-74
2022/01/09 06:14:01;;;;;;;0.00;0.00;;;5.00;99.90;;;;;;6211693;23;20337;-74
2022/01/09 06:16:27;;;;;;;0.00;0.00;;;5.00;99.90;;;;;;6212594;23;20039;-73
2022/01/09 06:18:52;;;;;;;0.00;0.00;;;4.90;99.90;;;;;;6211639;23;20013;-75
2022/01/09 06:21:18;;;;;;;0.00;0.00;;;5.00;99.90;;;;;;6209952;23;20058;-75
2022/01/09 06:23:44;;;;;;;0.00;0.00;;;4.90;99.90;;;;;;6212023;23;20013;-74
2022/01/09 06:26:10;;;;;;;0.00;0.00;;;4.90;99.90;;;;;;6217206;23;20436;-74
2022/01/09 06:28:36;;;;;;;0.00;0.00;;;4.80;99.90;;;;;;6215264;23;20004;-73
2022/01/09 06:31:01;;;;;;;0.00;0.00;;;4.80;99.90;;;;;;6212924;23;20024;-72
2022/01/09 06:33:27;;;;;;;0.00;0.00;;;4.70;99.90;;;;;;6212993;23;20384;-73
2022/01/09 06:35:52;;;;;;;0.00;0.00;;;4.80;99.90;;;;;;6212621;23;20336;-74
2022/01/09 06:38:18;;;;;;;0.00;0.00;;;4.60;99.90;;;;;;6213580;23;20390;-74
2022/01/09 06:40:44;;;;;;;0.00;0.00;;;4.60;99.90;;;;;;6211656;23;20456;-73
2022/01/09 06:43:10;;;;;;;0.00;0.00;;;4.50;99.90;;;;;;6210061;23;20008;-73
2022/01/09 06:45:36;;;;;;;0.00;0.00;;;4.70;99.90;;;;;;6210061;23;20484;-74
2022/01/09 06:48:02;;;;;;;0.00;0.00;;;4.80;99.90;;;;;;6213513;23;20001;-74
2022/01/09 06:50:28;;;;;;;0.00;0.00;;;4.80;99.90;;;;;;6215140;23;20526;-73
2022/01/09 06:52:54;;;;;;;0.00;0.00;;;4.80;99.90;;;;;;6212700;23;20001;-74
2022/01/09 06:55:20;;;;;;;0.00;0.00;;;4.80;99.90;;;;;;6213116;23;20051;-73
2022/01/09 06:57:46;;;;;;;0.00;0.00;;;4.70;99.90;;;;;;6210462;23;20087;-73
2022/01/09 07:00:16;;;;;;;0.00;0.00;;;4.60;99.90;;;;;;6208423;23;20048;-74
2022/01/09 07:02:42;;;;;;;0.00;0.00;;;4.70;99.90;;;;;;6212359;23;20001;-74
2022/01/09 07:05:08;;;;;;;0.00;0.00;;;4.60;99.90;;;;;;6212916;23;20001;-74
2022/01/09 07:07:34;;;;;;;;;;;4.50;99.90;;;;;;6211984;23;20088;-74
2022/01/09 07:09:59;;;;;;;0.00;0.00;;;4.50;99.90;;;;;;6211875;23;19899;-74
2022/01/09 07:12:25;;;;;;;0.00;0.00;;;4.50;99.90;;;;;;6212667;23;20048;-74
2022/01/09 07:14:51;;;;;;;0.00;0.00;;;4.50;99.90;;;;;;6209322;23;20084;-72
2022/01/09 07:17:17;;;;;;;0.00;0.00;;;4.40;99.90;;;;;;6211462;23;20016;-73
2022/01/09 07:19:43;;;;;;;0.00;0.00;;;4.50;99.90;;;;;;6210661;23;20329;-74
2022/01/09 07:22:08;;;;;;;;;;;4.50;99.90;;;;;;6211866;23;20001;-74
2022/01/09 07:24:34;;;;;;;0.00;0.00;;;4.50;99.90;;;;;;6210690;23;19954;-75
2022/01/09 07:27:00;;;;;;;;;;;4.50;99.90;;;;;;6209774;23;20004;-75
2022/01/09 07:29:27;;;;;;;0.00;0.00;;;4.60;99.90;;;;;;6210729;23;20400;-74
2022/01/09 07:31:53;;;;;;;0.00;0.00;;;4.70;99.90;;;;;;6210136;23;20332;-74
2022/01/09 07:34:19;;;;;;;;;;;4.80;99.90;;;;;;6210318;23;20440;-74
2022/01/09 07:36:44;;;;;;;0.00;0.00;;;4.90;99.90;;;;;;6211113;23;19915;-74
2022/01/09 07:39:10;;;;;;;0.00;0.00;;;4.80;99.90;;;;;;6210219;23;20011;-74
2022/01/09 07:41:36;;;;;;;0.00;0.00;;;4.90;99.90;;;;;;6210654;23;19996;-74
2022/01/09 07:44:02;;;;;;;0.00;0.00;;;4.90;99.90;;;;;;6210853;23;20009;-75
2022/01/09 07:46:28;;;;;;;0.00;0.00;;;5.00;99.90;;;;;;6209589;23;20005;-74
2022/01/09 07:48:54;;;;;;;0.00;0.00;;;5.00;99.90;;;;;;6210748;23;20511;-76
2022/01/09 07:51:20;;;;;;;0.00;0.00;;;5.10;99.90;;;;;;6210733;23;20470;-72
2022/01/09 07:53:46;;;;;;;0.00;0.00;;;5.10;99.90;;;;;;6211896;23;20001;-72
2022/01/09 07:56:12;;;;;;;0.00;0.00;;;5.10;99.90;;;;;;6213156;23;20146;-72
2022/01/09 07:58:37;;;;;;;0.00;0.00;;;5.10;99.90;;;;;;6212974;23;20005;-72
2022/01/09 08:01:03;;;;;;;0.00;0.00;;;5.10;99.90;;;;;;6213258;23;20384;-72
2022/01/09 08:03:29;;;;;;;0.00;0.00;;;5.20;99.90;;;;;;6213780;23;20077;-73
2022/01/09 08:05:54;;;;;;;0.00;0.00;;;5.10;99.90;;;;;;6212315;23;19997;-72
2022/01/09 08:08:20;;;;;;;0.00;0.00;;;5.10;99.90;;;;;;6213358;23;20094;-72
2022/01/09 08:10:46;;;;;;;0.00;0.00;;;5.10;99.90;;;;;;6212031;23;20004;-72
2022/01/09 08:13:11;;;;;;;0.00;0.00;;;5.00;99.90;;;;;;6211235;23;20028;-72
2022/01/09 08:15:37;;;;;;;0.00;0.00;;;5.10;99.90;;;;;;6213002;23;20488;-71
2022/01/09 08:18:03;;;;;;;0.00;0.00;;;5.20;99.90;;;;;;6214463;23;19996;-72
2022/01/09 08:20:29;;;;;;;0.00;0.00;;;5.20;99.90;;;;;;6212457;23;20008;-72
2022/01/09 08:22:54;;;;;;;0.00;0.00;;;5.30;99.90;;;;;;6212994;23;19996;-71
2022/01/09 08:25:20;;;;;;;0.00;0.00;;;5.30;99.90;;;;;;6213676;23;20024;-74
2022/01/09 08:27:47;;;;;;;0.00;0.00;;;5.20;99.90;;;;;;6212964;23;19996;-71
2022/01/09 08:30:13;;;;;;;0.00;0.00;;;5.20;99.90;;;;;;6211070;23;20491;-72
2022/01/09 08:32:39;;;;;;;0.00;0.00;;;5.20;99.90;;;;;;6212152;23;20080;-72
2022/01/09 08:35:06;;;;;;;0.00;0.00;;;5.20;99.90;;;;;;6213398;23;20051;-72
2022/01/09 08:37:33;;;;;;;0.00;0.00;;;5.20;99.90;;;;;;6213154;23;19996;-73
2022/01/09 08:39:59;;;;;;;0.00;0.00;;;5.10;99.90;;;;;;6213068;23;20000;-71
2022/01/09 08:42:25;;;;;;;0.00;0.00;;;5.20;99.90;;;;;;6213874;23;20001;-73
2022/01/09 08:44:50;;;;;;;0.00;0.00;;;5.10;99.90;;;;;;6213661;23;20005;-72
2022/01/09 08:47:16;;;;;;;0.00;0.00;;;5.10;99.90;;;;;;6212694;23;20008;-72
2022/01/09 08:49:42;;;;;;;0.00;0.00;;;5.10;99.90;;;;;;6213694;23;20076;-72
2022/01/09 08:52:08;;;;;;;0.00;0.00;;;5.20;99.90;;;;;;6212810;23;20007;-72
2022/01/09 08:54:34;;;;;;;0.00;0.00;;;5.20;99.90;;;;;;6211843;23;20005;-71
2022/01/09 08:56:59;;;;;;;0.00;0.00;;;5.20;99.90;;;;;;6212406;23;20000;-72
2022/01/09 08:59:28;;;;;;;0.00;0.00;;;5.30;99.90;;;;;;6210987;23;20011;-71
2022/01/09 09:01:54;;;;;;;0.00;0.00;;;5.30;99.90;;;;;;6212802;23;20008;-74
2022/01/09 09:04:19;;;;;;;0.00;0.00;;;5.30;99.90;;;;;;6212327;23;20500;-71
2022/01/09 09:06:45;;;;;;;0.00;0.00;;;5.30;99.90;;;;;;6210402;23;20015;-73
2022/01/09 09:09:11;;;;;;;0.00;0.00;;;5.30;99.90;;;;;;6211499;23;20008;-72
2022/01/09 09:11:38;;;;;;;0.00;0.00;;;5.40;99.90;;;;;;6210838;23;20001;-73
2022/01/09 09:14:05;;;;;;;0.00;0.00;;;5.40;99.90;;;;;;6209639;23;20016;-73
2022/01/09 09:16:31;;;;;;;0.00;0.00;;;5.50;99.90;;;;;;6211221;23;20424;-72
2022/01/09 09:18:57;;;;;;;0.00;0.00;;;5.60;99.90;;;;;;6211411;23;20337;-72
2022/01/09 09:21:23;;;;;;;0.00;0.00;;;5.60;99.90;;;;;;6210354;23;19997;-70
2022/01/09 09:23:49;;;;;;;0.00;0.00;;;5.60;99.90;;;;;;6212439;23;20078;-73
2022/01/09 09:26:16;;;;;;;0.00;0.00;;;5.80;99.90;;;;;;6211880;23;20024;-73
2022/01/09 09:28:42;;;;;;;0.00;0.00;;;5.90;99.90;;;;;;6213066;23;20024;-73
2022/01/09 09:31:08;;;;;;;;;;;5.90;99.90;;;;;;6211117;23;20075;-73
2022/01/09 09:33:34;;;;;;;0.00;0.00;;;5.90;99.90;;;;;;6211918;23;19900;-74
2022/01/09 09:36:02;;;;;;;0.00;0.00;;;6.00;99.90;;;;;;6213542;23;20027;-73
2022/01/09 09:38:31;;;;;;;0.00;0.00;;;6.00;99.90;;;;;;6213265;23;20008;-72
2022/01/09 09:40:58;;;;;;;0.00;0.00;;;6.00;99.90;;;;;;6211983;23;20012;-72
2022/01/09 09:43:23;;;;;;;0.00;0.00;;;6.10;99.90;;;;;;6211982;23;20055;-71
2022/01/09 09:45:51;;;;;;;0.00;0.00;;;6.20;99.90;;;;;;6183654;23;20013;-72
2022/01/09 09:48:18;;;;;;;0.00;0.00;;;6.20;99.90;;;;;;6208873;23;20011;-72
2022/01/09 09:50:44;;;;;;;0.00;0.00;;;6.30;99.90;;;;;;6211703;23;20444;-72
2022/01/09 09:53:09;;;;;;;0.00;0.00;;;6.30;99.90;;;;;;6209380;23;19996;-72
2022/01/09 09:55:35;;;;;;;0.00;0.00;;;6.40;99.90;;;;;;6212054;23;20004;-71
2022/01/09 09:58:01;;;;;;;0.00;0.00;;;6.50;99.90;;;;;;6211874;23;20001;-71
2022/01/09 10:00:27;;;;;;;0.00;0.00;;;6.60;99.90;;;;;;6210893;23;20019;-72
2022/01/09 10:02:55;;;;;;;0.00;0.00;;;6.60;99.90;;;;;;6211188;23;20001;-73
2022/01/09 10:05:23;;;;;;;0.00;0.00;;;6.80;99.90;;;;;;6211363;23;20035;-71
2022/01/09 10:07:54;;;;;;;0.00;0.00;;;6.80;99.90;;;;;;6211434;23;20023;-71
2022/01/09 10:10:28;;;;;;;0.00;0.00;;;6.80;99.90;;;;;;6208769;23;20506;-72
2022/01/09 10:13:05;;;;;;;0.00;0.00;;;6.90;99.90;;;;;;6207839;23;20005;-73
2022/01/09 10:15:42;;;;;;;0.00;0.00;;;6.90;99.90;;;;;;6211309;23;20001;-71
2022/01/09 10:18:08;;;;;;;;;;;7.00;99.90;;;;;;6211112;23;20008;-73
2022/01/09 10:20:33;;;;;;;0.00;0.00;;;7.00;99.90;;;;;;6211109;23;20363;-71
2022/01/09 10:22:59;;;;;;;0.00;0.00;;;7.10;99.90;;;;;;6211642;23;19997;-71
2022/01/09 10:25:52;;;;;;;0.00;0.00;;;7.10;99.90;;;;;;6210906;23;20019;-72
2022/01/09 10:28:20;;;;;;;0.00;0.00;;;7.20;99.90;;;;;;6212019;23;19993;-72
2022/01/09 10:30:51;;;;;;;0.00;0.00;;;7.30;99.90;;;;;;6212043;23;20036;-73
2022/01/09 10:33:25;;;;;;;0.00;0.00;;;7.30;99.90;;;;;;6210798;23;20012;-71
2022/01/09 10:35:51;;;;;;;0.00;0.00;;;7.30;99.90;;;;;;6184786;23;20016;-72
2022/01/09 10:38:22;;;;;;;0.00;0.00;;;7.40;99.90;;;;;;6210754;23;20031;-72
2022/01/09 10:41:03;;;;;;;0.00;0.00;;;7.40;99.90;;;;;;6209785;23;20091;-71
2022/01/09 10:43:39;;;;;;;0.00;0.00;;;7.60;99.90;;;;;;6209981;23;20427;-72
2022/01/09 10:46:05;;;;;;;0.00;0.00;;;7.60;99.90;;;;;;6209308;23;20028;-72
2022/01/09 10:48:39;;;;;;;0.00;0.00;;;7.70;99.90;;;;;;6208143;23;20417;-71
2022/01/09 10:51:08;;;;;;;0.00;0.00;;;7.70;99.90;;;;;;6209281;23;19997;-72
2022/01/09 10:53:44;;;;;;;0.00;0.00;;;7.70;99.90;;;;;;6209630;23;20005;-72
2022/01/09 10:56:21;;;;;;;0.00;0.00;;;7.80;99.90;;;;;;6211687;23;20080;-72
2022/01/09 10:58:57;;;;;;;0.00;0.00;;;7.90;99.90;;;;;;6212468;23;19997;-73
2022/01/09 11:01:27;;;;;;;0.00;0.00;;;7.90;99.90;;;;;;6212469;23;20004;-72
2022/01/09 11:04:05;;;;;;;0.00;0.00;;;7.90;99.90;;;;;;6213591;23;20012;-72
2022/01/09 11:06:32;;;;;;;0.00;0.00;;;7.90;99.90;;;;;;6211219;23;20091;-73
2022/01/09 11:08:59;;;;;;;0.00;0.00;;;8.00;99.90;;;;;;6211581;23;20028;-72
2022/01/09 11:11:44;;;;;;;0.00;0.00;;;8.00;99.90;;;;;;6211916;23;20076;-72
2022/01/09 11:14:14;;;;;;;0.00;0.00;;;8.00;99.90;;;;;;6209734;23;20004;-71
2022/01/09 11:16:50;;;;;;;0.00;0.00;;;8.10;99.90;;;;;;6212192;23;20005;-72
2022/01/09 11:19:17;;;;;;;0.00;0.00;;;8.10;99.90;;;;;;6211331;23;20492;-72
2022/01/09 11:21:46;;;;;;;0.00;0.00;;;8.10;99.90;;;;;;6212158;23;20212;-72
2022/01/09 11:24:28;;;;;;;0.00;0.00;;;8.10;99.90;;;;;;6214038;23;20008;-72
2022/01/09 11:27:19;;;;;;;0.00;0.00;;;8.20;99.90;;;;;;6212896;23;20012;-71
2022/01/09 11:30:03;;;;;;;0.00;0.00;;;8.20;99.90;;;;;;6213420;23;20466;-71
2022/01/09 11:33:04;;;;;;;0.00;0.00;;;8.20;99.90;;;;;;6210922;23;20004;-71
2022/01/09 11:35:48;;;;;;;0.00;0.00;;;8.30;99.90;;;;;;6212740;23;20023;-72
2022/01/09 11:38:34;;;;;;;0.00;0.00;;;8.30;99.90;;;;;;6213342;23;20049;-72
2022/01/09 11:41:22;;;;;;;0.00;0.00;;;8.40;99.90;;;;;;6212330;23;20341;-72
2022/01/09 11:43:57;;;;;;;;;;;8.40;99.90;;;;;;6214124;23;20016;-72
2022/01/09 11:46:24;;;;;;;0.00;0.00;;;8.40;99.90;;;;;;6211982;23;19910;-72
2022/01/09 11:48:53;;;;;;;0.00;0.00;;;8.50;99.90;;;;;;6213192;23;20038;-72
2022/01/09 11:51:25;;;;;;;0.00;0.00;;;8.50;99.90;;;;;;6214487;23;20088;-72
2022/01/09 11:54:09;;;;;;;0.00;0.00;;;8.50;99.90;;;;;;6213033;23;20411;-72
2022/01/09 11:57:03;;;;;;;0.00;0.00;;;8.60;99.90;;;;;;6213769;23;20356;-72
2022/01/09 11:59:31;;;;;;;0.00;0.00;;;8.60;99.90;;;;;;6212124;23;20242;-72
2022/01/09 12:02:28;;;;;;;0.00;0.00;;;8.60;99.90;;;;;;6211048;23;20000;-73
2022/01/09 12:04:56;;;;;;;0.00;0.00;;;8.60;99.90;;;;;;6212435;23;20004;-71
2022/01/09 12:07:34;;;;;;;0.00;0.00;;;8.70;99.90;;;;;;6212375;23;20306;-72
2022/01/09 12:10:28;;;;;;;0.00;0.00;;;8.70;99.90;;;;;;6213528;23;20031;-71
2022/01/09 12:12:55;;;;;;;0.00;0.00;;;8.70;99.90;;;;;;6211376;23;20000;-70
2022/01/09 12:15:34;;;;;;;0.00;0.00;;;8.80;99.90;;;;;;6213635;23;20000;-74
2022/01/09 12:18:03;;;;;;;0.00;0.00;;;8.80;99.90;;;;;;6213272;23;20003;-73
2022/01/09 12:20:32;;;;;;;0.00;0.00;;;8.80;99.90;;;;;;6213705;23;20077;-72
2022/01/09 12:23:06;;;;;;;0.00;0.00;;;8.80;99.90;;;;;;6215331;23;20000;-70
2022/01/09 12:25:53;;;;;;;0.00;0.00;;;8.80;99.90;;;;;;6213430;23;20487;-71
2022/01/09 12:28:20;;;;;;;;;;;8.90;99.90;;;;;;6213814;23;20424;-72
2022/01/09 12:31:08;;;;;;;0.00;0.00;;;8.90;99.90;;;;;;6213580;23;19927;-71
2022/01/09 12:33:38;;;;;;;0.00;0.00;;;8.90;99.90;;;;;;6212065;23;20011;-73
2022/01/09 12:36:08;;;;;;;0.00;0.00;;;8.90;99.90;;;;;;6211458;23;20386;-72
2022/01/09 12:38:45;;;;;;;0.00;0.00;;;8.90;99.90;;;;;;6207135;23;20008;-72
2022/01/09 12:41:36;;;;;;;0.00;0.00;;;8.90;99.90;;;;;;6209188;23;20004;-70
2022/01/09 12:44:08;;;;;;;0.00;0.00;;;8.90;99.90;;;;;;6210485;23;20353;-71
2022/01/09 12:46:38;;;;;;;0.00;0.00;;;8.90;99.90;;;;;;6209090;23;20479;-73
2022/01/09 12:49:07;;;;;;;0.00;0.00;;;8.90;99.90;;;;;;6211427;23;20439;-71
2022/01/09 12:51:35;;;;;;;0.00;0.00;;;8.90;99.90;;;;;;6211517;23;20425;-71
2022/01/09 12:54:07;;;;;;;0.00;0.00;;;8.90;99.90;;;;;;6210162;23;20015;-73
2022/01/09 12:56:36;;;;;;;0.00;0.00;;;8.90;99.90;;;;;;6208489;23;20754;-73
2022/01/09 12:59:08;;;;;;;0.00;0.00;;;8.90;99.90;;;;;;6210059;23;20024;-73
2022/01/09 13:01:41;;;;;;;0.00;0.00;;;8.90;99.90;;;;;;6205271;23;20005;-73
2022/01/09 13:04:10;;;;;;;0.00;0.00;;;8.80;99.90;;;;;;6183608;23;20012;-72
2022/01/09 13:06:38;;;;;;;0.00;0.00;;;8.80;99.90;;;;;;6208706;23;20047;-72